aviador You're here:

PABI Decoded Metar

DELTA JUNCTION in AK, USA
Report Time2017-12-15 18:53:00
UTC Time2017-12-15 19:44:24
Flight Rules lifr LIFR
Wind100° at 09 kt
W.Decomp.*RWY 07: 8.9 kt HW 1.1 kt RCW
RWY 10: 8.3 kt HW 3.5 kt LCW
RWY 01: 3.5 kt HW 8.3 kt RCW
W.Rank100° ranks 2
Current wind is below 100° avg. (11.0)
Visibility9999 m
Phenomena:Light Snow
Clouds:Overcast 003 Hf
Ceiling300 ft
Temp-6°C (ISA -18)
Dew Point-6°C (100% RH)
AAT-12.0°C
QNH1002 hPa
Density Alt-581 ft
Elevation1,266 ft
Report Wrong Elevation
Raw Report
PABI 151853Z 10009KT 9SM -SN OVC003 M06/M06 A2958=

Extra information for PABI:More info

Metar Taf Metar & Taf Last 4 Metars F.Rules Stats Wind Profile Meteogram Temp Stats Airport Information Weather charts Add Link Nearby VenuesMetar ALERT Operation Metar Decoded Social comments

AIRNAV info for PABI